createdAt,value
2022-11-13T00:08:17.986Z,8.7
2022-11-13T00:22:17.986Z,9.1
2022-11-13T00:36:17.959Z,8.8
2022-11-13T00:50:17.954Z,9.7
2022-11-13T01:04:17.999Z,10.4
2022-11-13T01:18:18.004Z,9.5
2022-11-13T01:32:18.072Z,8.4
2022-11-13T01:46:18.044Z,7.5
2022-11-13T02:01:18.111Z,7.4
2022-11-13T02:15:18.092Z,7.3
2022-11-13T02:29:18.103Z,6.9
2022-11-13T02:43:18.245Z,7.6
2022-11-13T02:57:18.462Z,7.9
2022-11-13T03:11:18.435Z,7.3
2022-11-13T03:25:18.481Z,7.4
2022-11-13T03:39:18.478Z,7.2
2022-11-13T03:53:18.477Z,10.4
2022-11-13T04:07:18.529Z,9.9
2022-11-13T04:21:18.622Z,8.0
2022-11-13T04:35:18.599Z,8.6
2022-11-13T04:49:18.605Z,9.1
2022-11-13T05:03:18.661Z,8.7
2022-11-13T05:17:18.666Z,8.3
2022-11-13T05:31:18.640Z,8.0
2022-11-13T05:45:18.657Z,7.4
2022-11-13T06:00:18.784Z,6.8
2022-11-13T06:15:18.781Z,6.7
2022-11-13T06:30:18.810Z,6.4
2022-11-13T06:45:18.883Z,7.1
2022-11-13T07:00:18.889Z,6.8
2022-11-13T07:15:19.151Z,7.8
2022-11-13T07:30:19.103Z,10.1
2022-11-13T07:45:19.161Z,12.1
2022-11-13T08:00:19.145Z,12.9
2022-11-13T08:15:19.152Z,13.9
2022-11-13T08:30:19.276Z,14.6
2022-11-13T08:46:19.310Z,15.5
2022-11-13T09:01:19.293Z,15.3
2022-11-13T09:16:19.294Z,15.8
2022-11-13T09:31:19.400Z,17.0
2022-11-13T09:46:19.399Z,16.1
2022-11-13T10:01:19.419Z,15.2
2022-11-13T10:16:19.396Z,15.1
2022-11-13T10:31:19.413Z,15.5
2022-11-13T10:46:19.433Z,15.6
2022-11-13T11:02:19.434Z,15.7
2022-11-13T11:17:19.434Z,15.5
2022-11-13T11:32:19.453Z,15.2
2022-11-13T11:47:19.451Z,15.1
2022-11-13T12:02:19.492Z,15.4
2022-11-13T12:18:19.525Z,15.4
2022-11-13T12:34:19.503Z,16.1
2022-11-13T12:50:19.617Z,16.0
2022-11-13T13:06:19.670Z,15.9
2022-11-13T13:21:19.669Z,16.1
2022-11-13T13:37:19.658Z,14.7
2022-11-13T13:53:19.732Z,15.1
2022-11-13T14:09:19.721Z,15.1
2022-11-13T14:24:19.712Z,15.8
2022-11-13T14:39:19.733Z,16.1
2022-11-13T14:55:19.779Z,15.9
2022-11-13T15:10:19.776Z,14.8
2022-11-13T15:25:19.777Z,14.2
2022-11-13T15:40:19.793Z,13.7
2022-11-13T15:55:19.809Z,13.1
2022-11-13T16:10:19.830Z,13.0
2022-11-13T16:24:22.836Z,12.9
2022-11-13T16:38:19.858Z,12.7
2022-11-13T16:52:19.854Z,12.1
2022-11-13T17:06:19.839Z,11.6
2022-11-13T17:20:19.847Z,11.6
2022-11-13T17:34:19.843Z,11.6
2022-11-13T17:48:19.870Z,11.2
2022-11-13T18:02:19.926Z,11.0
2022-11-13T18:16:19.873Z,11.6
2022-11-13T18:30:19.882Z,11.7
2022-11-13T18:44:19.872Z,12.2
2022-11-13T18:58:19.905Z,12.2
2022-11-13T19:12:19.884Z,11.7
2022-11-13T19:27:19.937Z,11.6
2022-11-13T19:41:19.934Z,12.0
2022-11-13T19:55:19.950Z,11.9
2022-11-13T20:09:19.945Z,11.2
2022-11-13T20:23:19.961Z,10.5
2022-11-13T20:37:19.952Z,10.3
2022-11-13T20:51:19.932Z,10.3
2022-11-13T21:05:19.979Z,10.1
2022-11-13T21:19:19.984Z,10.2
2022-11-13T21:33:20.020Z,10.0
2022-11-13T21:47:20.007Z,9.8
2022-11-13T22:01:20.007Z,9.6
2022-11-13T22:15:19.992Z,9.6
2022-11-13T22:29:20.003Z,9.4
2022-11-13T22:43:20.030Z,9.3
2022-11-13T22:57:20.014Z,9.2
2022-11-13T23:11:20.013Z,9.1
2022-11-13T23:25:20.033Z,9.1
2022-11-13T23:39:20.026Z,9.1
2022-11-13T23:53:20.047Z,9.3
